createdAt,value
2023-05-16T00:02:07.327Z,66.57
2023-05-16T00:07:28.296Z,66.24
2023-05-16T00:12:51.924Z,66.63
2023-05-16T00:18:16.186Z,66.36
2023-05-16T00:23:36.950Z,65.88
2023-05-16T00:28:57.945Z,65.57
2023-05-16T00:34:21.414Z,65.83
2023-05-16T00:39:42.509Z,65.94
2023-05-16T00:45:04.065Z,66.18
2023-05-16T00:50:25.159Z,66.22
2023-05-16T00:55:48.009Z,66.33
2023-05-16T01:01:09.298Z,66.28
2023-05-16T01:06:30.441Z,66.46
2023-05-16T01:12:02.276Z,66.44
2023-05-16T01:17:41.551Z,66.10
2023-05-16T01:23:30.135Z,66.39
2023-05-16T01:28:52.592Z,66.46
2023-05-16T01:34:13.948Z,66.46
2023-05-16T01:39:42.530Z,66.16
2023-05-16T01:45:32.865Z,65.59
2023-05-16T01:50:57.654Z,65.42
2023-05-16T01:56:18.824Z,65.59
2023-05-16T02:01:39.882Z,65.64
2023-05-16T02:07:01.977Z,65.30
2023-05-16T02:12:22.994Z,65.49
2023-05-16T02:17:43.901Z,65.60
2023-05-16T02:23:04.568Z,65.35
2023-05-16T02:28:26.554Z,65.59
2023-05-16T02:33:47.358Z,65.23
2023-05-16T02:39:10.327Z,65.30
2023-05-16T02:44:31.363Z,65.40
2023-05-16T02:49:53.386Z,65.93
2023-05-16T02:55:21.663Z,66.15
2023-05-16T03:00:43.677Z,65.87
2023-05-16T03:06:04.766Z,65.65
2023-05-16T03:11:29.095Z,65.98
2023-05-16T03:16:50.100Z,65.43
2023-05-16T03:22:11.085Z,65.56
2023-05-16T03:27:31.998Z,65.43
2023-05-16T03:32:53.130Z,65.53
2023-05-16T03:38:14.437Z,65.71
2023-05-16T03:43:38.028Z,65.76
2023-05-16T03:48:59.096Z,65.34
2023-05-16T03:54:19.888Z,65.57
2023-05-16T03:59:40.700Z,65.42
2023-05-16T04:05:01.660Z,65.93
2023-05-16T04:10:22.777Z,66.23
2023-05-16T04:15:43.674Z,66.00
2023-05-16T04:21:04.859Z,65.89
2023-05-16T04:26:25.809Z,66.26
2023-05-16T04:31:46.844Z,65.92
2023-05-16T04:37:08.663Z,66.00
2023-05-16T04:42:29.871Z,66.08
2023-05-16T04:47:51.598Z,66.36
2023-05-16T04:53:12.522Z,66.50
2023-05-16T04:58:33.165Z,70.76
2023-05-16T05:03:55.298Z,67.88
2023-05-16T05:09:17.974Z,66.56
2023-05-16T05:14:38.695Z,65.55
2023-05-16T05:20:02.468Z,65.48
2023-05-16T05:25:24.142Z,64.93
2023-05-16T05:30:44.993Z,64.96
2023-05-16T05:36:06.238Z,64.36
2023-05-16T05:41:27.899Z,64.52
2023-05-16T05:46:49.075Z,64.89
2023-05-16T05:52:10.158Z,64.62
2023-05-16T05:57:31.579Z,64.89
2023-05-16T06:02:52.639Z,64.46
2023-05-16T06:08:13.742Z,64.60
2023-05-16T06:13:34.679Z,64.27
2023-05-16T06:18:57.642Z,66.40
2023-05-16T06:24:20.122Z,64.96
2023-05-16T06:29:41.066Z,63.88
2023-05-16T06:35:02.198Z,63.63
2023-05-16T06:40:22.909Z,63.82
2023-05-16T06:45:46.719Z,64.04
2023-05-16T06:51:08.077Z,63.53
2023-05-16T06:56:29.097Z,63.07
2023-05-16T07:01:50.231Z,62.99
2023-05-16T07:07:11.524Z,62.69
2023-05-16T07:12:32.518Z,62.80
2023-05-16T07:17:53.393Z,63.02
2023-05-16T07:23:14.479Z,62.57
2023-05-16T07:28:35.616Z,61.87
2023-05-16T07:33:56.408Z,62.47
2023-05-16T07:39:17.425Z,62.48
2023-05-16T07:44:38.296Z,61.66
2023-05-16T07:49:59.284Z,61.88
2023-05-16T07:55:20.165Z,62.07
2023-05-16T08:00:41.271Z,62.08
2023-05-16T08:06:02.125Z,61.29
2023-05-16T08:11:23.545Z,61.84
2023-05-16T08:16:44.970Z,61.63
2023-05-16T08:22:09.180Z,61.47
2023-05-16T08:27:30.283Z,61.50
2023-05-16T08:32:50.924Z,61.13
2023-05-16T08:38:12.398Z,60.96
2023-05-16T08:43:35.195Z,61.54
2023-05-16T08:48:59.974Z,61.67
2023-05-16T08:54:23.006Z,61.81
2023-05-16T08:59:45.209Z,62.07
2023-05-16T09:05:08.826Z,61.98
2023-05-16T09:10:29.920Z,61.63
2023-05-16T09:16:12.631Z,61.35
2023-05-16T09:21:36.040Z,60.90
2023-05-16T09:26:57.022Z,60.99
2023-05-16T09:32:18.730Z,61.29
2023-05-16T09:37:44.839Z,62.18
2023-05-16T09:43:08.484Z,61.21
2023-05-16T09:48:29.799Z,61.67
2023-05-16T09:53:50.913Z,61.14
2023-05-16T09:59:11.905Z,61.24
2023-05-16T10:04:33.669Z,61.04
2023-05-16T10:09:56.094Z,61.35
2023-05-16T10:15:17.749Z,61.31
2023-05-16T10:20:41.714Z,61.39
2023-05-16T10:26:06.175Z,61.25
2023-05-16T10:31:29.451Z,61.28
2023-05-16T10:36:51.023Z,61.32
2023-05-16T10:42:14.601Z,60.96
2023-05-16T10:47:35.860Z,60.98
2023-05-16T10:52:57.327Z,61.51
2023-05-16T10:58:25.555Z,61.34
2023-05-16T11:04:04.846Z,61.34
2023-05-16T11:09:28.045Z,61.74
2023-05-16T11:14:52.131Z,61.83
2023-05-16T11:20:32.667Z,61.46
2023-05-16T11:26:01.395Z,61.68
2023-05-16T11:31:25.019Z,61.89
2023-05-16T11:36:46.514Z,62.08
2023-05-16T11:42:07.497Z,62.35
2023-05-16T11:47:29.947Z,62.54
2023-05-16T11:52:57.271Z,62.62
2023-05-16T11:58:20.156Z,62.37
2023-05-16T12:03:41.508Z,62.02
2023-05-16T12:09:10.079Z,61.97
2023-05-16T12:14:31.008Z,62.37
2023-05-16T12:19:52.471Z,62.22
2023-05-16T12:25:33.112Z,62.22
2023-05-16T12:30:54.018Z,62.22
2023-05-16T12:36:15.683Z,62.36
2023-05-16T12:41:42.437Z,62.02
2023-05-16T12:47:03.510Z,62.38
2023-05-16T12:52:24.645Z,62.24
2023-05-16T12:57:50.434Z,62.14
2023-05-16T13:03:12.291Z,61.88
2023-05-16T13:08:33.934Z,61.74
2023-05-16T13:13:54.979Z,62.15
2023-05-16T13:19:16.509Z,62.42
2023-05-16T13:24:38.467Z,62.56
2023-05-16T13:30:00.019Z,62.60
2023-05-16T13:35:21.806Z,62.99
2023-05-16T13:40:42.987Z,62.32
2023-05-16T13:46:04.127Z,62.28
2023-05-16T13:51:25.547Z,62.56
2023-05-16T13:56:46.811Z,62.34
2023-05-16T14:02:07.857Z,62.13
2023-05-16T14:07:28.516Z,62.15
2023-05-16T14:12:49.420Z,62.64
2023-05-16T14:18:10.383Z,62.80
2023-05-16T14:23:31.832Z,62.88
2023-05-16T14:28:53.211Z,63.01
2023-05-16T14:34:14.123Z,63.38
2023-05-16T14:39:35.195Z,63.35
2023-05-16T14:44:56.378Z,63.40
2023-05-16T14:50:17.349Z,63.38
2023-05-16T14:55:39.032Z,63.51
2023-05-16T15:00:59.883Z,63.40
2023-05-16T15:06:20.671Z,63.75
2023-05-16T15:11:41.872Z,63.66
2023-05-16T15:17:05.409Z,63.91
2023-05-16T15:22:30.072Z,63.70
2023-05-16T15:27:51.818Z,63.78
2023-05-16T15:33:13.756Z,63.80
2023-05-16T15:38:35.454Z,63.81
2023-05-16T15:43:56.682Z,63.99
2023-05-16T15:49:17.575Z,63.64
2023-05-16T15:54:38.403Z,63.80
2023-05-16T15:59:59.202Z,64.17
2023-05-16T16:05:21.633Z,64.04
2023-05-16T16:10:42.365Z,64.25
2023-05-16T16:16:03.437Z,64.08
2023-05-16T16:21:24.383Z,64.24
2023-05-16T16:26:45.246Z,63.79
2023-05-16T16:32:06.716Z,64.28
2023-05-16T16:37:27.886Z,64.38
2023-05-16T16:42:50.898Z,64.54
2023-05-16T16:48:12.313Z,64.59
2023-05-16T16:53:35.309Z,64.62
2023-05-16T16:58:56.616Z,64.62
2023-05-16T17:04:19.614Z,64.64
2023-05-16T17:09:43.118Z,64.65
2023-05-16T17:15:06.757Z,64.98
2023-05-16T17:20:27.903Z,65.00
2023-05-16T17:25:48.769Z,65.24
2023-05-16T17:31:09.677Z,65.24
2023-05-16T17:36:31.123Z,65.47
2023-05-16T17:41:57.876Z,65.23
2023-05-16T17:47:19.800Z,65.19
2023-05-16T17:52:40.818Z,65.61
2023-05-16T17:58:01.733Z,65.51
2023-05-16T18:03:22.906Z,65.57
2023-05-16T18:08:45.725Z,65.86
2023-05-16T18:14:09.365Z,65.82
2023-05-16T18:19:31.866Z,66.46
2023-05-16T18:24:54.670Z,66.26
2023-05-16T18:30:16.488Z,66.47
2023-05-16T18:35:37.346Z,66.13
2023-05-16T18:40:58.526Z,66.47
2023-05-16T18:46:19.486Z,66.46
2023-05-16T18:51:40.898Z,66.83
2023-05-16T18:57:05.483Z,66.47
2023-05-16T19:02:37.882Z,66.61
2023-05-16T19:08:03.116Z,66.17
2023-05-16T19:13:30.897Z,66.22
2023-05-16T19:18:52.230Z,67.12
2023-05-16T19:24:13.147Z,66.56
2023-05-16T19:29:33.983Z,66.91
2023-05-16T19:34:55.282Z,66.62
2023-05-16T19:40:19.604Z,66.66
2023-05-16T19:45:40.486Z,66.67
2023-05-16T19:51:01.595Z,66.96
2023-05-16T19:56:23.315Z,66.78
2023-05-16T20:01:44.492Z,66.81
2023-05-16T20:07:07.641Z,66.74
2023-05-16T20:12:28.715Z,66.40
2023-05-16T20:17:49.686Z,66.33
2023-05-16T20:23:10.500Z,66.51
2023-05-16T20:28:31.959Z,66.64
2023-05-16T20:33:52.776Z,66.45
2023-05-16T20:39:13.850Z,66.56
2023-05-16T20:44:35.118Z,66.31
2023-05-16T20:49:57.391Z,65.98
2023-05-16T20:55:19.040Z,65.90
2023-05-16T21:00:40.007Z,66.00
2023-05-16T21:06:04.193Z,66.05
2023-05-16T21:11:28.141Z,65.84
2023-05-16T21:16:49.186Z,65.80
2023-05-16T21:22:11.387Z,65.95
2023-05-16T21:27:33.154Z,65.98
2023-05-16T21:32:54.069Z,66.18
2023-05-16T21:38:17.786Z,65.87
2023-05-16T21:43:38.922Z,65.92
2023-05-16T21:49:00.149Z,66.01
2023-05-16T21:54:21.202Z,66.25
2023-05-16T21:59:42.136Z,66.03
2023-05-16T22:05:03.542Z,65.91
2023-05-16T22:10:24.844Z,66.02
2023-05-16T22:15:52.096Z,66.10
2023-05-16T22:21:17.220Z,66.28
2023-05-16T22:26:38.436Z,66.11
2023-05-16T22:31:59.469Z,66.37
2023-05-16T22:37:21.175Z,66.16
2023-05-16T22:42:42.342Z,66.24
2023-05-16T22:48:03.201Z,66.24
2023-05-16T22:53:24.120Z,66.52
2023-05-16T22:58:44.817Z,66.44
2023-05-16T23:04:06.203Z,66.49
2023-05-16T23:09:27.215Z,66.41
2023-05-16T23:14:48.280Z,66.65
2023-05-16T23:20:09.580Z,66.46
2023-05-16T23:25:30.685Z,66.85
2023-05-16T23:30:51.915Z,66.54
2023-05-16T23:36:12.765Z,66.53
2023-05-16T23:41:33.875Z,66.52
2023-05-16T23:46:54.971Z,66.48
2023-05-16T23:52:15.813Z,66.20
2023-05-16T23:57:36.559Z,66.19
